Time;durP1;ratioP1;P1;durP2;ratioP2;P2;SDS_P1;SDS_P2;PMS_P1;PMS_P2;Temp;Humidity;BMP_temperature;BMP_pressure;BME280_temperature;BME280_humidity;BME280_pressure;Samples;Min_cycle;Max_cycle;Signal;HPM_P1;HPM_P2
2023/08/02 00:00:19;;;;;;;;;2.00;1.33;;;;;;;;5071926;28;45760;-65
2023/08/02 00:02:44;;;;;;;;;1.00;1.00;;;;;;;;5048358;28;47436;-65
2023/08/02 00:05:09;;;;;;;;;2.00;2.00;;;;;;;;5070976;27;45703;-64
2023/08/02 00:07:35;;;;;;;;;1.33;1.33;;;;;;;;5054067;28;45947;-64
2023/08/02 00:10:00;;;;;;;;;1.00;1.00;;;;;;;;5071127;28;45806;-65
2023/08/02 00:12:25;;;;;;;;;1.00;1.00;;;;;;;;5072139;28;46643;-65
2023/08/02 00:14:50;;;;;;;;;2.75;1.75;;;;;;;;5071517;28;45712;-65
2023/08/02 00:17:16;;;;;;;;;0.00;0.00;;;;;;;;5053844;28;45877;-66
2023/08/02 00:19:41;;;;;;;;;2.67;2.33;;;;;;;;5043569;28;45728;-71
2023/08/02 00:22:06;;;;;;;;;1.00;1.00;;;;;;;;5068549;27;45856;-69
2023/08/02 00:24:32;;;;;;;;;0.00;0.00;;;;;;;;5071740;27;45429;-69
2023/08/02 00:26:57;;;;;;;;;1.00;1.00;;;;;;;;5071418;27;45561;-65
2023/08/02 00:29:22;;;;;;;;;0.00;0.00;;;;;;;;5046105;27;45535;-66
2023/08/02 00:31:47;;;;;;;;;2.00;1.00;;;;;;;;5072618;28;45646;-66
2023/08/02 00:34:13;;;;;;;;;0.00;0.00;;;;;;;;5052843;28;45694;-66
2023/08/02 00:36:38;;;;;;;;;0.00;0.00;;;;;;;;5073241;28;45600;-67
2023/08/02 00:39:03;;;;;;;;;0.00;0.00;;;;;;;;5072033;27;45623;-65
2023/08/02 00:41:28;;;;;;;;;0.00;0.00;;;;;;;;5071212;28;45855;-63
2023/08/02 00:43:53;;;;;;;;;0.00;0.00;;;;;;;;5052079;27;45679;-65
2023/08/02 00:46:20;;;;;;;;;0.00;0.00;;;;;;;;5070536;27;45738;-64
2023/08/02 00:48:46;;;;;;;;;0.00;0.00;;;;;;;;5054942;28;46135;-65
2023/08/02 00:51:17;;;;;;;;;0.00;0.00;;;;;;;;5073541;28;45689;-67
2023/08/02 00:53:43;;;;;;;;;0.00;0.00;;;;;;;;5074482;27;45666;-69
2023/08/02 00:56:10;;;;;;;;;0.00;0.00;;;;;;;;5053631;28;45801;-66
2023/08/02 00:58:36;;;;;;;;;0.00;0.00;;;;;;;;5070763;28;45725;-64
2023/08/02 01:01:07;;;;;;;;;0.00;0.00;;;;;;;;5067706;27;46608;-65
2023/08/02 01:03:36;;;;;;;;;0.00;0.00;;;;;;;;5060133;28;45428;-64
2023/08/02 01:06:07;;;;;;;;;0.00;0.00;;;;;;;;5053188;28;45663;-64
2023/08/02 01:08:35;;;;;;;;;0.00;0.00;;;;;;;;5071056;28;45632;-66
2023/08/02 01:11:03;;;;;;;;;0.00;0.00;;;;;;;;5072179;28;46789;-64
2023/08/02 01:13:29;;;;;;;;;0.00;0.00;;;;;;;;5055205;28;45579;-66
2023/08/02 01:15:55;;;;;;;;;0.00;0.00;;;;;;;;5073204;28;45408;-67
2023/08/02 01:18:21;;;;;;;;;0.75;0.00;;;;;;;;5071344;28;45779;-65
2023/08/02 01:20:46;;;;;;;;;0.00;0.00;;;;;;;;5071034;28;45398;-64
2023/08/02 01:23:11;;;;;;;;;0.50;0.00;;;;;;;;5072032;28;45446;-65
2023/08/02 01:25:38;;;;;;;;;0.00;0.00;;;;;;;;5077354;27;45400;-66
2023/08/02 01:28:05;;;;;;;;;0.25;0.00;;;;;;;;5053392;27;46553;-64
2023/08/02 01:30:33;;;;;;;;;0.00;0.00;;;;;;;;5070835;27;45788;-65
2023/08/02 01:32:59;;;;;;;;;0.00;0.00;;;;;;;;5070769;28;45905;-65
2023/08/02 01:35:25;;;;;;;;;0.00;0.00;;;;;;;;5063937;28;45548;-66
2023/08/02 01:37:50;;;;;;;;;0.00;0.00;;;;;;;;5069330;27;45472;-65
2023/08/02 01:40:16;;;;;;;;;0.00;0.00;;;;;;;;5070939;28;45353;-67
2023/08/02 01:42:41;;;;;;;;;0.00;0.00;;;;;;;;5052145;28;45461;-65
2023/08/02 01:45:07;;;;;;;;;0.00;0.00;;;;;;;;5064320;27;45752;-65
2023/08/02 01:47:32;;;;;;;;;0.00;0.00;;;;;;;;5070898;28;45799;-66
2023/08/02 01:49:57;;;;;;;;;0.00;0.00;;;;;;;;5072304;28;45652;-66
2023/08/02 01:52:22;;;;;;;;;0.00;0.00;;;;;;;;5065463;28;45684;-65
2023/08/02 01:54:48;;;;;;;;;0.00;0.00;;;;;;;;5046691;28;45651;-66
2023/08/02 01:57:13;;;;;;;;;0.00;0.00;;;;;;;;5053247;28;47064;-66
2023/08/02 01:59:38;;;;;;;;;0.00;0.00;;;;;;;;5073029;28;46506;-65
2023/08/02 02:02:03;;;;;;;;;0.00;0.00;;;;;;;;5070777;27;45677;-66
2023/08/02 02:04:29;;;;;;;;;0.00;0.00;;;;;;;;5074293;27;45621;-66
2023/08/02 02:06:54;;;;;;;;;0.00;0.00;;;;;;;;5072446;28;45688;-66
2023/08/02 02:09:19;;;;;;;;;0.00;0.00;;;;;;;;5072142;28;45601;-64
2023/08/02 02:11:47;;;;;;;;;1.00;0.00;;;;;;;;5064376;28;45874;-64
2023/08/02 02:14:13;;;;;;;;;0.00;0.00;;;;;;;;5072287;27;45409;-65
2023/08/02 02:16:38;;;;;;;;;0.00;0.00;;;;;;;;5072959;28;45557;-65
2023/08/02 02:19:03;;;;;;;;;0.00;0.00;;;;;;;;5066147;28;45463;-65
2023/08/02 02:21:28;;;;;;;;;0.00;0.00;;;;;;;;5079021;27;45419;-64
2023/08/02 02:23:54;;;;;;;;;0.00;0.00;;;;;;;;5057161;27;45797;-66
2023/08/02 02:26:19;;;;;;;;;0.00;0.00;;;;;;;;5060308;28;45761;-66
2023/08/02 02:28:44;;;;;;;;;0.00;0.00;;;;;;;;5048197;28;47118;-65
2023/08/02 02:31:10;;;;;;;;;0.00;0.00;;;;;;;;5054356;28;45813;-65
2023/08/02 02:33:35;;;;;;;;;0.00;0.00;;;;;;;;5056616;28;45444;-65
2023/08/02 02:36:00;;;;;;;;;0.00;0.00;;;;;;;;5073550;28;45791;-66
2023/08/02 02:38:25;;;;;;;;;0.00;0.00;;;;;;;;5077790;27;46038;-64
2023/08/02 02:40:51;;;;;;;;;0.00;0.00;;;;;;;;5073235;27;45597;-65
2023/08/02 02:43:16;;;;;;;;;0.50;0.50;;;;;;;;5067299;28;45653;-66
2023/08/02 02:45:41;;;;;;;;;0.00;0.00;;;;;;;;5066803;27;45368;-66
2023/08/02 02:48:06;;;;;;;;;0.00;0.00;;;;;;;;5049221;28;47170;-64
2023/08/02 02:50:32;;;;;;;;;0.00;0.00;;;;;;;;5056248;28;45622;-65
2023/08/02 02:52:57;;;;;;;;;0.00;0.00;;;;;;;;5062281;27;45627;-65
2023/08/02 02:55:23;;;;;;;;;0.00;0.00;;;;;;;;5054958;28;45836;-66
2023/08/02 02:57:50;;;;;;;;;0.00;0.00;;;;;;;;5074626;27;45403;-67
2023/08/02 03:00:16;;;;;;;;;0.00;0.00;;;;;;;;5051968;28;45389;-65
2023/08/02 03:02:41;;;;;;;;;1.00;0.00;;;;;;;;5062523;27;45758;-67
2023/08/02 03:05:06;;;;;;;;;0.00;0.00;;;;;;;;5072609;28;46314;-66
2023/08/02 03:07:32;;;;;;;;;0.00;0.00;;;;;;;;5073840;28;45788;-65
2023/08/02 03:09:57;;;;;;;;;0.25;0.25;;;;;;;;5051888;27;45690;-66
2023/08/02 03:12:23;;;;;;;;;1.00;0.00;;;;;;;;5046642;28;45871;-65
2023/08/02 03:14:49;;;;;;;;;0.00;0.00;;;;;;;;5072797;28;45698;-66
2023/08/02 03:17:14;;;;;;;;;0.00;0.00;;;;;;;;5072975;28;46200;-67
2023/08/02 03:19:39;;;;;;;;;0.00;0.00;;;;;;;;5069769;27;45521;-66
2023/08/02 03:22:05;;;;;;;;;0.00;0.00;;;;;;;;5072489;28;45354;-64
2023/08/02 03:24:31;;;;;;;;;0.50;0.00;;;;;;;;5071663;28;45605;-65
2023/08/02 03:26:57;;;;;;;;;0.00;0.00;;;;;;;;5071091;28;45474;-65
2023/08/02 03:29:22;;;;;;;;;0.00;0.00;;;;;;;;5053596;28;45795;-64
2023/08/02 03:31:47;;;;;;;;;0.00;0.00;;;;;;;;5061099;28;45912;-65
2023/08/02 03:34:14;;;;;;;;;0.00;0.00;;;;;;;;5054720;28;46480;-65
2023/08/02 03:36:42;;;;;;;;;0.00;0.00;;;;;;;;5084275;27;45436;-65
2023/08/02 03:39:07;;;;;;;;;0.00;0.00;;;;;;;;5074665;27;45324;-65
2023/08/02 03:41:33;;;;;;;;;0.00;0.00;;;;;;;;5072609;28;46015;-65
2023/08/02 03:43:58;;;;;;;;;0.00;0.00;;;;;;;;5053818;28;46003;-64
2023/08/02 03:46:23;;;;;;;;;0.00;0.00;;;;;;;;5071878;28;45813;-66
2023/08/02 03:48:48;;;;;;;;;0.00;0.00;;;;;;;;5071657;28;45851;-65
2023/08/02 03:51:14;;;;;;;;;0.00;0.00;;;;;;;;5054173;28;45846;-65
2023/08/02 03:53:39;;;;;;;;;0.00;0.00;;;;;;;;5055021;28;45849;-66
2023/08/02 03:56:04;;;;;;;;;0.00;0.00;;;;;;;;5072850;28;46322;-65
2023/08/02 03:58:29;;;;;;;;;0.00;0.00;;;;;;;;5071611;28;45515;-65
2023/08/02 04:00:55;;;;;;;;;0.00;0.00;;;;;;;;5050131;28;45787;-65
2023/08/02 04:03:20;;;;;;;;;1.00;0.00;;;;;;;;5070099;28;45681;-67
2023/08/02 04:05:45;;;;;;;;;0.00;0.00;;;;;;;;5053759;28;46384;-66
2023/08/02 04:08:10;;;;;;;;;0.00;0.00;;;;;;;;5067722;28;45685;-66
2023/08/02 04:10:39;;;;;;;;;0.00;0.00;;;;;;;;5061827;28;45788;-67
2023/08/02 04:13:04;;;;;;;;;0.00;0.00;;;;;;;;5053009;28;45803;-64
2023/08/02 04:15:30;;;;;;;;;0.00;0.00;;;;;;;;5071579;28;45384;-65
2023/08/02 04:17:56;;;;;;;;;1.25;0.00;;;;;;;;5070362;27;45489;-67
2023/08/02 04:20:21;;;;;;;;;0.00;0.00;;;;;;;;5080836;27;45880;-67
2023/08/02 04:22:49;;;;;;;;;0.00;0.00;;;;;;;;5072895;27;45476;-64
2023/08/02 04:25:14;;;;;;;;;0.00;0.00;;;;;;;;5072282;28;45838;-66
2023/08/02 04:27:39;;;;;;;;;1.00;0.00;;;;;;;;5077733;27;45364;-65
2023/08/02 04:30:05;;;;;;;;;0.00;0.00;;;;;;;;5055389;28;45726;-65
2023/08/02 04:32:31;;;;;;;;;1.50;1.00;;;;;;;;5071226;27;45761;-65
2023/08/02 04:34:56;;;;;;;;;0.00;0.00;;;;;;;;5061269;28;45410;-65
2023/08/02 04:37:21;;;;;;;;;0.00;0.00;;;;;;;;5062394;28;45698;-66
2023/08/02 04:39:47;;;;;;;;;0.75;0.00;;;;;;;;5072939;28;45440;-65
2023/08/02 04:42:15;;;;;;;;;0.00;0.00;;;;;;;;5071189;28;45528;-66
2023/08/02 04:44:40;;;;;;;;;0.00;0.00;;;;;;;;5052620;28;47722;-64
2023/08/02 04:47:05;;;;;;;;;1.00;0.00;;;;;;;;5074693;27;45649;-65
2023/08/02 04:49:30;;;;;;;;;0.00;0.00;;;;;;;;5072755;28;45691;-64
2023/08/02 04:51:56;;;;;;;;;0.25;0.25;;;;;;;;5053233;28;46359;-64
2023/08/02 04:54:21;;;;;;;;;0.00;0.00;;;;;;;;5061697;27;46270;-64
2023/08/02 04:56:46;;;;;;;;;0.75;0.00;;;;;;;;5055232;28;45542;-66
2023/08/02 04:59:13;;;;;;;;;0.00;0.00;;;;;;;;5072583;28;45598;-64
2023/08/02 05:01:38;;;;;;;;;0.00;0.00;;;;;;;;5073800;27;45820;-64
2023/08/02 05:04:04;;;;;;;;;0.00;0.00;;;;;;;;5080000;27;46250;-65
2023/08/02 05:06:29;;;;;;;;;0.00;0.00;;;;;;;;5070552;28;45525;-65
2023/08/02 05:08:54;;;;;;;;;0.00;0.00;;;;;;;;5071476;28;45821;-64
2023/08/02 05:11:20;;;;;;;;;0.00;0.00;;;;;;;;5073400;27;45810;-65
2023/08/02 05:13:45;;;;;;;;;0.00;0.00;;;;;;;;5088562;27;45738;-65
2023/08/02 05:16:13;;;;;;;;;0.00;0.00;;;;;;;;5078791;27;45431;-65
2023/08/02 05:18:38;;;;;;;;;0.00;0.00;;;;;;;;5070439;27;45661;-66
2023/08/02 05:21:09;;;;;;;;;0.00;0.00;;;;;;;;5074168;27;45668;-64
2023/08/02 05:23:34;;;;;;;;;0.00;0.00;;;;;;;;5069280;28;45868;-66
2023/08/02 05:26:02;;;;;;;;;0.00;0.00;;;;;;;;5071220;28;45444;-64
2023/08/02 05:28:28;;;;;;;;;0.00;0.00;;;;;;;;5047240;28;45649;-63
2023/08/02 05:30:53;;;;;;;;;0.00;0.00;;;;;;;;5069584;27;45362;-65
2023/08/02 05:33:18;;;;;;;;;0.00;0.00;;;;;;;;5074112;28;46203;-62
2023/08/02 05:35:43;;;;;;;;;0.00;0.00;;;;;;;;5074793;28;45345;-64
2023/08/02 05:38:10;;;;;;;;;0.00;0.00;;;;;;;;5073577;27;45573;-65
2023/08/02 05:40:35;;;;;;;;;0.00;0.00;;;;;;;;5056001;28;46138;-63
2023/08/02 05:43:01;;;;;;;;;0.00;0.00;;;;;;;;5074424;28;46040;-63
2023/08/02 05:45:26;;;;;;;;;0.75;0.75;;;;;;;;5077874;27;45533;-63
2023/08/02 05:47:52;;;;;;;;;0.00;0.00;;;;;;;;5082739;27;45663;-62
2023/08/02 05:50:17;;;;;;;;;0.00;0.00;;;;;;;;5067957;28;45779;-62
2023/08/02 05:52:42;;;;;;;;;0.00;0.00;;;;;;;;5079858;27;45518;-62
2023/08/02 05:55:08;;;;;;;;;0.00;0.00;;;;;;;;5076092;27;45704;-63
2023/08/02 05:57:33;;;;;;;;;0.00;0.00;;;;;;;;5041327;28;46077;-67
2023/08/02 05:59:58;;;;;;;;;0.00;0.00;;;;;;;;5075617;27;45404;-67
2023/08/02 06:02:23;;;;;;;;;0.00;0.00;;;;;;;;5073146;28;46196;-67
2023/08/02 06:04:49;;;;;;;;;0.00;0.00;;;;;;;;5078818;27;45423;-68
2023/08/02 06:07:14;;;;;;;;;0.00;0.00;;;;;;;;5074529;28;45614;-66
2023/08/02 06:09:40;;;;;;;;;0.00;0.00;;;;;;;;5055509;28;46627;-67
2023/08/02 06:12:05;;;;;;;;;1.00;0.00;;;;;;;;5075916;27;45354;-69
2023/08/02 06:14:30;;;;;;;;;0.00;0.00;;;;;;;;5058948;27;45537;-68
2023/08/02 06:16:56;;;;;;;;;0.00;0.00;;;;;;;;5076542;27;45532;-69
2023/08/02 06:19:21;;;;;;;;;0.00;0.00;;;;;;;;5079989;27;46496;-67
2023/08/02 06:21:46;;;;;;;;;0.00;0.00;;;;;;;;5072774;28;45917;-70
2023/08/02 06:24:11;;;;;;;;;0.00;0.00;;;;;;;;5068725;28;45731;-67
2023/08/02 06:26:37;;;;;;;;;0.00;0.00;;;;;;;;5056751;27;46155;-67
2023/08/02 06:29:02;;;;;;;;;0.00;0.00;;;;;;;;5059510;27;45393;-68
2023/08/02 06:31:27;;;;;;;;;0.00;0.00;;;;;;;;5066607;27;45898;-68
2023/08/02 06:33:52;;;;;;;;;0.00;0.00;;;;;;;;5061579;27;45429;-68
2023/08/02 06:36:18;;;;;;;;;0.00;0.00;;;;;;;;5068971;27;45570;-71
2023/08/02 06:38:46;;;;;;;;;0.00;0.00;;;;;;;;5065796;27;45924;-66
2023/08/02 06:41:12;;;;;;;;;0.00;0.00;;;;;;;;5059192;27;45810;-68
2023/08/02 06:43:37;;;;;;;;;0.00;0.00;;;;;;;;5062348;27;45849;-68
2023/08/02 06:46:02;;;;;;;;;0.25;0.00;;;;;;;;5075707;27;45780;-66
2023/08/02 06:48:28;;;;;;;;;0.00;0.00;;;;;;;;5059716;28;45562;-68
2023/08/02 06:50:53;;;;;;;;;0.00;0.00;;;;;;;;5070486;27;46233;-67
2023/08/02 06:53:18;;;;;;;;;0.00;0.00;;;;;;;;5059027;27;45842;-68
2023/08/02 06:55:44;;;;;;;;;1.00;0.00;;;;;;;;5052403;28;45428;-68
2023/08/02 06:58:09;;;;;;;;;0.00;0.00;;;;;;;;5060162;27;45480;-70
2023/08/02 07:00:34;;;;;;;;;0.00;0.00;;;;;;;;5060358;27;46193;-66
2023/08/02 07:03:00;;;;;;;;;0.00;0.00;;;;;;;;5060351;27;45764;-70
2023/08/02 07:05:28;;;;;;;;;0.00;0.00;;;;;;;;5067508;27;45494;-67
2023/08/02 07:07:54;;;;;;;;;0.00;0.00;;;;;;;;5064604;27;45627;-67
2023/08/02 07:10:20;;;;;;;;;0.00;0.00;;;;;;;;5064411;27;45639;-67
2023/08/02 07:12:45;;;;;;;;;0.25;0.00;;;;;;;;5072602;27;45545;-67
2023/08/02 07:15:10;;;;;;;;;0.00;0.00;;;;;;;;5070118;28;45646;-68
2023/08/02 07:17:35;;;;;;;;;0.00;0.00;;;;;;;;5061643;27;45562;-68
2023/08/02 07:20:01;;;;;;;;;0.00;0.00;;;;;;;;5065381;27;45602;-69
2023/08/02 07:22:26;;;;;;;;;0.00;0.00;;;;;;;;5069906;27;45686;-69
2023/08/02 07:24:51;;;;;;;;;0.25;0.00;;;;;;;;5065278;28;45611;-69
2023/08/02 07:27:17;;;;;;;;;0.00;0.00;;;;;;;;5065398;27;45680;-68
2023/08/02 07:29:42;;;;;;;;;0.00;0.00;;;;;;;;5057580;27;46252;-69
2023/08/02 07:32:07;;;;;;;;;0.75;0.00;;;;;;;;5066337;27;45799;-68
2023/08/02 07:34:33;;;;;;;;;0.00;0.00;;;;;;;;5065029;27;45594;-68
2023/08/02 07:36:58;;;;;;;;;0.00;0.00;;;;;;;;5065770;27;45746;-68
2023/08/02 07:39:24;;;;;;;;;0.00;0.00;;;;;;;;5068343;27;46707;-68
2023/08/02 07:41:49;;;;;;;;;0.00;0.00;;;;;;;;5065068;27;45348;-69
2023/08/02 07:44:14;;;;;;;;;0.00;0.00;;;;;;;;5072253;27;46288;-69
2023/08/02 07:46:39;;;;;;;;;1.00;0.00;;;;;;;;5053212;28;46784;-68
2023/08/02 07:49:05;;;;;;;;;0.00;0.00;;;;;;;;5059063;27;46342;-67
2023/08/02 07:51:30;;;;;;;;;0.00;0.00;;;;;;;;5066881;27;45493;-68
2023/08/02 07:53:55;;;;;;;;;0.00;0.00;;;;;;;;5059047;27;45740;-67
2023/08/02 07:56:21;;;;;;;;;1.00;0.00;;;;;;;;5062890;27;45838;-67
2023/08/02 07:58:46;;;;;;;;;0.00;0.00;;;;;;;;5067545;27;45748;-67
2023/08/02 08:01:11;;;;;;;;;0.00;0.00;;;;;;;;5065291;27;45775;-67
2023/08/02 08:03:37;;;;;;;;;1.00;0.00;;;;;;;;5040541;28;45562;-68
2023/08/02 08:06:12;;;;;;;;;0.00;0.00;;;;;;;;5047068;28;47394;-68
2023/08/02 08:08:38;;;;;;;;;0.00;0.00;;;;;;;;5057108;27;46592;-68
2023/08/02 08:11:03;;;;;;;;;0.00;0.00;;;;;;;;5065052;27;45957;-68
2023/08/02 08:13:29;;;;;;;;;0.00;0.00;;;;;;;;5073250;27;45490;-68
2023/08/02 08:15:54;;;;;;;;;0.00;0.00;;;;;;;;5064393;27;45839;-68
2023/08/02 08:18:19;;;;;;;;;0.00;0.00;;;;;;;;5057170;28;46016;-68
2023/08/02 08:20:45;;;;;;;;;0.00;0.00;;;;;;;;5051813;28;45589;-67
2023/08/02 08:23:11;;;;;;;;;0.50;0.00;;;;;;;;5053519;28;45442;-68
2023/08/02 08:25:37;;;;;;;;;0.00;0.00;;;;;;;;5052172;28;46048;-67
2023/08/02 08:28:02;;;;;;;;;0.00;0.00;;;;;;;;5073757;27;45727;-67
2023/08/02 08:30:27;;;;;;;;;0.00;0.00;;;;;;;;5047198;28;45704;-70
2023/08/02 08:32:53;;;;;;;;;0.00;0.00;;;;;;;;5061152;27;45700;-69
2023/08/02 08:35:18;;;;;;;;;0.00;0.00;;;;;;;;5068587;27;45557;-70
2023/08/02 08:37:43;;;;;;;;;0.00;0.00;;;;;;;;5068550;28;45686;-69
2023/08/02 08:40:16;;;;;;;;;0.00;0.00;;;;;;;;5053017;28;45381;-68
2023/08/02 08:43:07;;;;;;;;;0.00;0.00;;;;;;;;5064094;27;45630;-68
2023/08/02 08:45:33;;;;;;;;;0.00;0.00;;;;;;;;5062238;27;45610;-69
2023/08/02 08:47:58;;;;;;;;;0.00;0.00;;;;;;;;5066908;27;46383;-68
2023/08/02 08:50:25;;;;;;;;;0.00;0.00;;;;;;;;5065542;28;45792;-68
2023/08/02 08:52:51;;;;;;;;;0.00;0.00;;;;;;;;5060711;27;45655;-69
2023/08/02 08:55:17;;;;;;;;;0.00;0.00;;;;;;;;5062774;27;45437;-68
2023/08/02 08:57:43;;;;;;;;;0.00;0.00;;;;;;;;5065539;27;45721;-67
2023/08/02 09:00:10;;;;;;;;;0.00;0.00;;;;;;;;5050237;28;46035;-69
2023/08/02 09:02:37;;;;;;;;;0.00;0.00;;;;;;;;5042629;28;45783;-69
2023/08/02 09:05:05;;;;;;;;;0.00;0.00;;;;;;;;5070268;27;45517;-69
2023/08/02 09:07:31;;;;;;;;;0.00;0.00;;;;;;;;5060502;27;45859;-69
2023/08/02 09:09:56;;;;;;;;;0.75;0.00;;;;;;;;5075047;27;46022;-68
2023/08/02 09:12:23;;;;;;;;;0.00;0.00;;;;;;;;5075213;27;46567;-68
2023/08/02 09:15:00;;;;;;;;;0.00;0.00;;;;;;;;5069049;27;45881;-71
2023/08/02 09:17:25;;;;;;;;;0.00;0.00;;;;;;;;5068225;28;47491;-68
2023/08/02 09:19:50;;;;;;;;;0.00;0.00;;;;;;;;5041158;28;45865;-67
2023/08/02 09:22:16;;;;;;;;;0.00;0.00;;;;;;;;5071942;27;45465;-69
2023/08/02 09:24:43;;;;;;;;;0.00;0.00;;;;;;;;5052886;27;45815;-68
2023/08/02 09:27:19;;;;;;;;;0.00;0.00;;;;;;;;5068465;27;45716;-68
2023/08/02 09:29:44;;;;;;;;;0.00;0.00;;;;;;;;5071046;27;45905;-68
2023/08/02 09:32:10;;;;;;;;;0.00;0.00;;;;;;;;5059735;27;45355;-67
2023/08/02 09:34:43;;;;;;;;;0.00;0.00;;;;;;;;5056153;28;46459;-70
2023/08/02 09:37:11;;;;;;;;;0.00;0.00;;;;;;;;5063082;27;45451;-68
2023/08/02 09:39:40;;;;;;;;;0.00;0.00;;;;;;;;5070654;27;45879;-69
2023/08/02 09:42:14;;;;;;;;;0.00;0.00;;;;;;;;5051027;28;45527;-70
2023/08/02 09:44:49;;;;;;;;;0.00;0.00;;;;;;;;5054868;27;45773;-68
2023/08/02 09:47:14;;;;;;;;;0.00;0.00;;;;;;;;5066439;27;45744;-69
2023/08/02 09:49:40;;;;;;;;;0.50;0.50;;;;;;;;5070026;28;45490;-69
2023/08/02 09:52:07;;;;;;;;;0.00;0.00;;;;;;;;5061099;28;45918;-69
2023/08/02 09:54:32;;;;;;;;;0.00;0.00;;;;;;;;5055027;27;45449;-69
2023/08/02 09:56:59;;;;;;;;;0.00;0.00;;;;;;;;5050503;28;46576;-68
2023/08/02 09:59:26;;;;;;;;;0.00;0.00;;;;;;;;5068340;28;45511;-68
2023/08/02 10:01:52;;;;;;;;;0.00;0.00;;;;;;;;5068197;28;45749;-69
2023/08/02 10:04:19;;;;;;;;;1.00;0.00;;;;;;;;5045015;28;46618;-67
2023/08/02 10:06:47;;;;;;;;;0.75;0.00;;;;;;;;5069289;27;46349;-67
2023/08/02 10:09:17;;;;;;;;;0.00;0.00;;;;;;;;5062465;28;46410;-68
2023/08/02 10:11:42;;;;;;;;;1.50;0.50;;;;;;;;5073178;27;45444;-67
2023/08/02 10:14:09;;;;;;;;;0.00;0.00;;;;;;;;5070109;28;45313;-69
2023/08/02 10:16:35;;;;;;;;;0.00;0.00;;;;;;;;5058193;28;45895;-69
2023/08/02 10:19:01;;;;;;;;;0.00;0.00;;;;;;;;5076507;27;45816;-67
2023/08/02 10:21:27;;;;;;;;;0.00;0.00;;;;;;;;5059952;27;45925;-67
2023/08/02 10:23:52;;;;;;;;;0.00;0.00;;;;;;;;5054630;28;45763;-67
2023/08/02 10:26:18;;;;;;;;;0.00;0.00;;;;;;;;5082665;27;45436;-66
2023/08/02 10:28:44;;;;;;;;;0.00;0.00;;;;;;;;5067254;27;45405;-68
2023/08/02 10:31:10;;;;;;;;;0.00;0.00;;;;;;;;5072530;27;45547;-68
2023/08/02 10:33:35;;;;;;;;;0.00;0.00;;;;;;;;5082132;27;45436;-67
2023/08/02 10:36:02;;;;;;;;;1.00;0.00;;;;;;;;5063434;28;45415;-67
2023/08/02 10:38:39;;;;;;;;;0.00;0.00;;;;;;;;5069148;28;45824;-67
2023/08/02 10:41:08;;;;;;;;;0.00;0.00;;;;;;;;5087088;27;45739;-67
2023/08/02 10:43:34;;;;;;;;;1.50;0.00;;;;;;;;5074711;22;46042;-81
2023/08/02 10:46:16;;;;;;;;;0.00;0.00;;;;;;;;5070372;28;46457;-82
2023/08/02 10:48:41;;;;;;;;;0.00;0.00;;;;;;;;5068615;28;44847;-81
2023/08/02 10:51:28;;;;;;;;;0.25;0.25;;;;;;;;5057879;28;45451;-82
2023/08/02 10:54:12;;;;;;;;;0.25;0.00;;;;;;;;5052656;27;45456;-83
2023/08/02 10:57:03;;;;;;;;;0.75;0.00;;;;;;;;5066745;28;47233;-81
2023/08/02 10:59:28;;;;;;;;;0.60;0.60;;;;;;;;5062500;28;45373;-82
2023/08/02 11:01:58;;;;;;;;;0.25;0.00;;;;;;;;5074533;28;44735;-82
2023/08/02 11:04:24;;;;;;;;;0.00;0.00;;;;;;;;5069168;28;44902;-82
2023/08/02 11:06:49;;;;;;;;;1.50;0.25;;;;;;;;5071135;28;46429;-81
2023/08/02 11:09:14;;;;;;;;;0.50;0.00;;;;;;;;5066895;28;45187;-82
2023/08/02 11:11:39;;;;;;;;;0.00;0.00;;;;;;;;5073505;28;44961;-82
2023/08/02 11:14:05;;;;;;;;;0.00;0.00;;;;;;;;5065779;28;47225;-80
2023/08/02 11:16:30;;;;;;;;;3.00;1.00;;;;;;;;5069265;28;45684;-82
2023/08/02 11:18:57;;;;;;;;;0.00;0.00;;;;;;;;5072349;28;45355;-81
2023/08/02 11:21:22;;;;;;;;;1.75;1.00;;;;;;;;5054839;28;45335;-82
2023/08/02 11:23:49;;;;;;;;;1.75;0.50;;;;;;;;5069211;28;45645;-81
2023/08/02 11:26:19;;;;;;;;;1.50;1.00;;;;;;;;5052725;28;47127;-82
2023/08/02 11:28:52;;;;;;;;;1.80;1.00;;;;;;;;5052068;28;45382;-82
2023/08/02 11:31:18;;;;;;;;;0.00;0.00;;;;;;;;5053497;28;45265;-82
2023/08/02 11:33:43;;;;;;;;;0.00;0.00;;;;;;;;5053872;28;45553;-82
2023/08/02 11:36:09;;;;;;;;;1.00;1.00;;;;;;;;5065080;28;45331;-80
2023/08/02 11:38:35;;;;;;;;;0.00;0.00;;;;;;;;5071088;28;45385;-80
2023/08/02 11:41:00;;;;;;;;;1.50;0.50;;;;;;;;5068485;28;45403;-79
2023/08/02 11:43:35;;;;;;;;;0.75;0.00;;;;;;;;5085028;28;45528;-78
2023/08/02 11:46:11;;;;;;;;;0.00;0.00;;;;;;;;5073240;28;47272;-81
2023/08/02 11:48:36;;;;;;;;;2.00;0.60;;;;;;;;5072437;28;45677;-81
2023/08/02 11:51:01;;;;;;;;;1.50;0.50;;;;;;;;5072496;28;45559;-80
2023/08/02 11:53:27;;;;;;;;;0.75;0.75;;;;;;;;5088481;28;45292;-81
2023/08/02 11:55:52;;;;;;;;;0.00;0.00;;;;;;;;5088990;28;45412;-79
2023/08/02 11:58:17;;;;;;;;;0.50;0.50;;;;;;;;5065449;28;45287;-78
2023/08/02 12:00:44;;;;;;;;;3.00;1.00;;;;;;;;5082306;28;45389;-81
2023/08/02 12:03:13;;;;;;;;;1.00;1.00;;;;;;;;5074732;28;46071;-79
2023/08/02 12:05:40;;;;;;;;;0.00;0.00;;;;;;;;5074671;28;47190;-81
2023/08/02 12:08:12;;;;;;;;;1.00;1.00;;;;;;;;5071836;27;44894;-81
2023/08/02 12:10:41;;;;;;;;;2.50;0.00;;;;;;;;5060687;27;45851;-79
2023/08/02 12:13:07;;;;;;;;;0.00;0.00;;;;;;;;5048622;28;45813;-82
2023/08/02 12:15:32;;;;;;;;;0.50;0.00;;;;;;;;5055406;28;47318;-81
2023/08/02 12:18:04;;;;;;;;;1.00;0.00;;;;;;;;5052822;28;45426;-81
2023/08/02 12:20:30;;;;;;;;;0.00;0.00;;;;;;;;5066836;28;45799;-78
2023/08/02 12:22:56;;;;;;;;;1.00;0.75;;;;;;;;5051624;28;45862;-81
2023/08/02 12:25:21;;;;;;;;;1.00;0.00;;;;;;;;5038018;28;46773;-80
2023/08/02 12:28:06;;;;;;;;;0.75;0.50;;;;;;;;5068316;27;45780;-81
2023/08/02 12:30:31;;;;;;;;;0.00;0.00;;;;;;;;5058973;27;45522;-80
2023/08/02 12:32:58;;;;;;;;;0.00;0.00;;;;;;;;5050648;28;45494;-80
2023/08/02 12:35:23;;;;;;;;;0.25;0.25;;;;;;;;5042571;28;48198;-80
2023/08/02 12:37:50;;;;;;;;;0.75;0.75;;;;;;;;5048792;28;45835;-80
2023/08/02 12:40:15;;;;;;;;;2.25;1.00;;;;;;;;5068836;27;46035;-81
2023/08/02 12:42:42;;;;;;;;;1.75;1.75;;;;;;;;5063387;28;45793;-81
2023/08/02 12:45:08;;;;;;;;;1.00;1.00;;;;;;;;5068333;27;45547;-81
2023/08/02 12:47:33;;;;;;;;;2.25;1.00;;;;;;;;5072092;28;45391;-81
2023/08/02 12:49:59;;;;;;;;;1.00;0.75;;;;;;;;5058265;28;45456;-81
2023/08/02 12:52:24;;;;;;;;;1.00;0.00;;;;;;;;5067122;28;46020;-81
2023/08/02 12:55:05;;;;;;;;;0.75;0.75;;;;;;;;5059322;28;46999;-82
2023/08/02 12:57:30;;;;;;;;;0.00;0.00;;;;;;;;5051604;28;45343;-81
2023/08/02 12:59:55;;;;;;;;;0.00;0.00;;;;;;;;5066224;28;46561;-80
2023/08/02 13:02:21;;;;;;;;;2.00;1.00;;;;;;;;5065765;28;45866;-82
2023/08/02 13:04:47;;;;;;;;;1.00;0.25;;;;;;;;5050606;28;48577;-80
2023/08/02 13:07:12;;;;;;;;;0.00;0.00;;;;;;;;5059012;28;45449;-81
2023/08/02 13:09:39;;;;;;;;;1.25;0.00;;;;;;;;5071579;28;45782;-81
2023/08/02 13:12:05;;;;;;;;;0.25;0.25;;;;;;;;5053997;27;46664;-80
2023/08/02 13:14:30;;;;;;;;;1.00;1.00;;;;;;;;5055673;28;46255;-80
2023/08/02 13:16:56;;;;;;;;;0.00;0.00;;;;;;;;5070099;28;45786;-81
2023/08/02 13:19:22;;;;;;;;;0.00;0.00;;;;;;;;5069987;28;45857;-79
2023/08/02 13:21:47;;;;;;;;;1.75;0.00;;;;;;;;5051232;28;46554;-82
2023/08/02 13:24:12;;;;;;;;;3.00;0.00;;;;;;;;5069413;28;45569;-82
2023/08/02 13:26:38;;;;;;;;;1.00;0.50;;;;;;;;5070811;28;45795;-81
2023/08/02 13:29:03;;;;;;;;;1.50;0.00;;;;;;;;5048554;28;46282;-79
2023/08/02 13:32:03;;;;;;;;;0.00;0.00;;;;;;;;5056471;27;45816;-80
2023/08/02 13:34:33;;;;;;;;;0.00;0.00;;;;;;;;5042801;27;47834;-80
2023/08/02 13:36:58;;;;;;;;;0.75;0.00;;;;;;;;5059333;28;45993;-79
2023/08/02 13:39:23;;;;;;;;;0.00;0.00;;;;;;;;5069189;28;45662;-80
2023/08/02 13:41:48;;;;;;;;;0.50;0.50;;;;;;;;5059943;27;45905;-79
2023/08/02 13:44:16;;;;;;;;;1.75;0.75;;;;;;;;5068282;27;46021;-78
2023/08/02 13:46:41;;;;;;;;;2.75;0.00;;;;;;;;5063836;27;45646;-78
2023/08/02 13:49:07;;;;;;;;;2.00;0.00;;;;;;;;5069246;27;45438;-82
2023/08/02 13:51:33;;;;;;;;;0.75;0.00;;;;;;;;5050282;28;46961;-78
2023/08/02 13:53:59;;;;;;;;;0.00;0.00;;;;;;;;5078047;27;46496;-78
2023/08/02 13:56:26;;;;;;;;;0.25;0.25;;;;;;;;5060646;28;45988;-78
2023/08/02 13:58:51;;;;;;;;;1.50;1.00;;;;;;;;5065550;27;45470;-80
2023/08/02 14:01:16;;;;;;;;;1.25;0.25;;;;;;;;5072086;27;45515;-78
2023/08/02 14:03:42;;;;;;;;;0.00;0.00;;;;;;;;5058319;27;45517;-80
2023/08/02 14:06:10;;;;;;;;;0.75;0.00;;;;;;;;5077748;27;45503;-84
2023/08/02 14:08:36;;;;;;;;;0.25;0.00;;;;;;;;5053855;28;45747;-81
2023/08/02 14:11:04;;;;;;;;;2.00;1.00;;;;;;;;5072247;28;45769;-78
2023/08/02 14:13:30;;;;;;;;;1.25;0.00;;;;;;;;5071786;28;46474;-77
2023/08/02 14:15:55;;;;;;;;;1.25;0.00;;;;;;;;5070714;28;45983;-78
2023/08/02 14:18:20;;;;;;;;;1.00;0.00;;;;;;;;5054089;28;45469;-77
2023/08/02 14:20:45;;;;;;;;;0.00;0.00;;;;;;;;5039336;28;46831;-81
2023/08/02 14:23:10;;;;;;;;;0.00;0.00;;;;;;;;5058830;28;46236;-78
2023/08/02 14:25:36;;;;;;;;;0.50;0.00;;;;;;;;5051821;28;45472;-78
2023/08/02 14:28:01;;;;;;;;;0.75;0.75;;;;;;;;5059565;28;45931;-83
2023/08/02 14:30:27;;;;;;;;;2.50;0.00;;;;;;;;5052528;28;45540;-82
2023/08/02 14:32:53;;;;;;;;;1.00;1.00;;;;;;;;5083437;27;45620;-83
2023/08/02 14:35:18;;;;;;;;;1.00;0.00;;;;;;;;5054535;28;45591;-80
2023/08/02 14:37:45;;;;;;;;;0.25;0.00;;;;;;;;5060814;27;45435;-81